sensor_id;sensor_type;location;lat;lon;timestamp;P1;durP1;ratioP1;P2;durP2;ratioP2
10315;SDS011;5203;48.976;8.306;2022-08-19T00:02:04;13.45;;;12.55;;
10315;SDS011;5203;48.976;8.306;2022-08-19T00:04:31;14.25;;;13.15;;
10315;SDS011;5203;48.976;8.306;2022-08-19T00:07:03;13.50;;;12.60;;
10315;SDS011;5203;48.976;8.306;2022-08-19T00:09:29;14.10;;;13.10;;
10315;SDS011;5203;48.976;8.306;2022-08-19T00:11:56;14.52;;;13.45;;
10315;SDS011;5203;48.976;8.306;2022-08-19T00:14:23;14.25;;;13.02;;
10315;SDS011;5203;48.976;8.306;2022-08-19T00:16:50;15.10;;;13.95;;
10315;SDS011;5203;48.976;8.306;2022-08-19T00:19:19;14.73;;;13.63;;
10315;SDS011;5203;48.976;8.306;2022-08-19T00:21:45;14.60;;;13.60;;
10315;SDS011;5203;48.976;8.306;2022-08-19T00:24:12;15.50;;;14.30;;
10315;SDS011;5203;48.976;8.306;2022-08-19T00:26:39;15.18;;;13.93;;
10315;SDS011;5203;48.976;8.306;2022-08-19T00:29:07;14.93;;;13.90;;
10315;SDS011;5203;48.976;8.306;2022-08-19T00:31:35;16.25;;;15.00;;
10315;SDS011;5203;48.976;8.306;2022-08-19T00:34:01;15.93;;;14.77;;
10315;SDS011;5203;48.976;8.306;2022-08-19T00:36:28;17.27;;;15.77;;
10315;SDS011;5203;48.976;8.306;2022-08-19T00:38:54;16.08;;;14.88;;
10315;SDS011;5203;48.976;8.306;2022-08-19T00:41:20;15.73;;;14.63;;
10315;SDS011;5203;48.976;8.306;2022-08-19T00:44:11;16.50;;;15.20;;
10315;SDS011;5203;48.976;8.306;2022-08-19T00:46:45;17.20;;;15.90;;
10315;SDS011;5203;48.976;8.306;2022-08-19T00:51:58;16.17;;;14.98;;
10315;SDS011;5203;48.976;8.306;2022-08-19T00:54:30;15.07;;;13.98;;
10315;SDS011;5203;48.976;8.306;2022-08-19T00:56:57;15.05;;;13.95;;
10315;SDS011;5203;48.976;8.306;2022-08-19T00:59:24;15.50;;;14.38;;
10315;SDS011;5203;48.976;8.306;2022-08-19T01:01:50;16.83;;;15.63;;
10315;SDS011;5203;48.976;8.306;2022-08-19T01:04:17;15.48;;;14.38;;
10315;SDS011;5203;48.976;8.306;2022-08-19T01:06:42;15.18;;;14.07;;
10315;SDS011;5203;48.976;8.306;2022-08-19T01:09:08;17.20;;;15.82;;
10315;SDS011;5203;48.976;8.306;2022-08-19T01:11:35;18.42;;;16.92;;
10315;SDS011;5203;48.976;8.306;2022-08-19T01:14:04;17.48;;;16.23;;
10315;SDS011;5203;48.976;8.306;2022-08-19T01:16:31;17.98;;;16.67;;
10315;SDS011;5203;48.976;8.306;2022-08-19T01:18:58;19.45;;;17.73;;
10315;SDS011;5203;48.976;8.306;2022-08-19T01:21:29;18.77;;;17.38;;
10315;SDS011;5203;48.976;8.306;2022-08-19T01:23:59;18.55;;;17.15;;
10315;SDS011;5203;48.976;8.306;2022-08-19T01:26:25;20.52;;;18.90;;
10315;SDS011;5203;48.976;8.306;2022-08-19T01:28:52;20.67;;;19.05;;
10315;SDS011;5203;48.976;8.306;2022-08-19T01:31:21;19.13;;;17.73;;
10315;SDS011;5203;48.976;8.306;2022-08-19T01:33:50;20.85;;;19.13;;
10315;SDS011;5203;48.976;8.306;2022-08-19T01:39:00;21.60;;;19.80;;
10315;SDS011;5203;48.976;8.306;2022-08-19T01:41:28;23.00;;;20.95;;
10315;SDS011;5203;48.976;8.306;2022-08-19T01:43:53;21.98;;;20.27;;
10315;SDS011;5203;48.976;8.306;2022-08-19T01:46:21;21.98;;;20.20;;
10315;SDS011;5203;48.976;8.306;2022-08-19T01:48:47;22.42;;;20.52;;
10315;SDS011;5203;48.976;8.306;2022-08-19T01:51:13;21.40;;;19.55;;
10315;SDS011;5203;48.976;8.306;2022-08-19T01:53:40;22.60;;;20.75;;
10315;SDS011;5203;48.976;8.306;2022-08-19T01:56:06;22.75;;;21.00;;
10315;SDS011;5203;48.976;8.306;2022-08-19T01:58:33;21.88;;;20.08;;
10315;SDS011;5203;48.976;8.306;2022-08-19T02:01:03;21.10;;;19.42;;
10315;SDS011;5203;48.976;8.306;2022-08-19T02:03:30;19.83;;;18.33;;
10315;SDS011;5203;48.976;8.306;2022-08-19T02:05:59;20.60;;;19.10;;
10315;SDS011;5203;48.976;8.306;2022-08-19T02:08:27;20.35;;;18.73;;
10315;SDS011;5203;48.976;8.306;2022-08-19T02:10:53;19.92;;;18.42;;
10315;SDS011;5203;48.976;8.306;2022-08-19T02:13:19;22.20;;;20.40;;
10315;SDS011;5203;48.976;8.306;2022-08-19T02:15:45;21.25;;;19.65;;
10315;SDS011;5203;48.976;8.306;2022-08-19T02:18:11;20.95;;;19.25;;
10315;SDS011;5203;48.976;8.306;2022-08-19T02:20:37;20.33;;;18.73;;
10315;SDS011;5203;48.976;8.306;2022-08-19T02:23:04;20.92;;;19.33;;
10315;SDS011;5203;48.976;8.306;2022-08-19T02:25:30;22.02;;;20.23;;
10315;SDS011;5203;48.976;8.306;2022-08-19T02:27:56;20.70;;;19.00;;
10315;SDS011;5203;48.976;8.306;2022-08-19T02:30:22;21.52;;;19.80;;
10315;SDS011;5203;48.976;8.306;2022-08-19T02:32:49;22.98;;;21.27;;
10315;SDS011;5203;48.976;8.306;2022-08-19T02:35:15;21.38;;;19.63;;
10315;SDS011;5203;48.976;8.306;2022-08-19T02:37:42;22.15;;;20.42;;
10315;SDS011;5203;48.976;8.306;2022-08-19T02:40:27;20.95;;;19.33;;
10315;SDS011;5203;48.976;8.306;2022-08-19T02:42:54;21.38;;;19.88;;
10315;SDS011;5203;48.976;8.306;2022-08-19T02:45:20;23.00;;;21.20;;
10315;SDS011;5203;48.976;8.306;2022-08-19T02:47:46;21.70;;;20.00;;
10315;SDS011;5203;48.976;8.306;2022-08-19T02:50:12;21.40;;;19.70;;
10315;SDS011;5203;48.976;8.306;2022-08-19T02:52:38;20.08;;;18.48;;
10315;SDS011;5203;48.976;8.306;2022-08-19T02:55:04;21.02;;;19.42;;
10315;SDS011;5203;48.976;8.306;2022-08-19T02:57:30;22.20;;;20.40;;
10315;SDS011;5203;48.976;8.306;2022-08-19T02:59:56;20.80;;;19.15;;
10315;SDS011;5203;48.976;8.306;2022-08-19T03:02:23;21.58;;;19.88;;
10315;SDS011;5203;48.976;8.306;2022-08-19T03:04:49;23.58;;;21.58;;
10315;SDS011;5203;48.976;8.306;2022-08-19T03:07:16;24.95;;;23.00;;
10315;SDS011;5203;48.976;8.306;2022-08-19T03:09:43;25.33;;;23.27;;
10315;SDS011;5203;48.976;8.306;2022-08-19T03:12:09;26.13;;;24.13;;
10315;SDS011;5203;48.976;8.306;2022-08-19T03:14:36;26.52;;;24.48;;
10315;SDS011;5203;48.976;8.306;2022-08-19T03:17:02;26.00;;;23.77;;
10315;SDS011;5203;48.976;8.306;2022-08-19T03:19:29;25.25;;;23.25;;
10315;SDS011;5203;48.976;8.306;2022-08-19T03:21:56;27.52;;;25.33;;
10315;SDS011;5203;48.976;8.306;2022-08-19T03:24:23;27.20;;;25.08;;
10315;SDS011;5203;48.976;8.306;2022-08-19T03:26:51;28.25;;;25.92;;
10315;SDS011;5203;48.976;8.306;2022-08-19T03:29:22;26.80;;;24.58;;
10315;SDS011;5203;48.976;8.306;2022-08-19T03:31:48;27.08;;;24.98;;
10315;SDS011;5203;48.976;8.306;2022-08-19T03:34:18;26.60;;;24.40;;
10315;SDS011;5203;48.976;8.306;2022-08-19T03:36:46;24.85;;;22.83;;
10315;SDS011;5203;48.976;8.306;2022-08-19T03:39:12;28.15;;;26.00;;
10315;SDS011;5203;48.976;8.306;2022-08-19T03:41:40;26.15;;;24.15;;
10315;SDS011;5203;48.976;8.306;2022-08-19T03:44:07;25.63;;;23.60;;
10315;SDS011;5203;48.976;8.306;2022-08-19T03:46:33;26.77;;;24.58;;
10315;SDS011;5203;48.976;8.306;2022-08-19T03:49:02;24.23;;;22.23;;
10315;SDS011;5203;48.976;8.306;2022-08-19T03:51:33;24.92;;;22.92;;
10315;SDS011;5203;48.976;8.306;2022-08-19T03:54:04;26.70;;;24.27;;
10315;SDS011;5203;48.976;8.306;2022-08-19T03:56:36;23.35;;;21.52;;
10315;SDS011;5203;48.976;8.306;2022-08-19T03:59:03;26.10;;;24.00;;
10315;SDS011;5203;48.976;8.306;2022-08-19T04:01:31;24.90;;;22.55;;
10315;SDS011;5203;48.976;8.306;2022-08-19T04:03:57;26.02;;;23.73;;
10315;SDS011;5203;48.976;8.306;2022-08-19T04:06:25;24.83;;;22.85;;
10315;SDS011;5203;48.976;8.306;2022-08-19T04:08:53;23.45;;;21.55;;
10315;SDS011;5203;48.976;8.306;2022-08-19T04:11:21;25.67;;;23.70;;
10315;SDS011;5203;48.976;8.306;2022-08-19T04:13:49;24.67;;;22.90;;
10315;SDS011;5203;48.976;8.306;2022-08-19T04:16:16;26.33;;;23.92;;
10315;SDS011;5203;48.976;8.306;2022-08-19T04:18:46;27.65;;;25.45;;
10315;SDS011;5203;48.976;8.306;2022-08-19T04:21:17;26.92;;;24.83;;
10315;SDS011;5203;48.976;8.306;2022-08-19T04:23:48;27.88;;;25.58;;
10315;SDS011;5203;48.976;8.306;2022-08-19T04:26:18;26.90;;;24.73;;
10315;SDS011;5203;48.976;8.306;2022-08-19T04:28:46;26.98;;;24.77;;
10315;SDS011;5203;48.976;8.306;2022-08-19T04:31:17;26.08;;;23.88;;
10315;SDS011;5203;48.976;8.306;2022-08-19T04:33:44;24.23;;;22.13;;
10315;SDS011;5203;48.976;8.306;2022-08-19T04:36:17;26.10;;;24.02;;
10315;SDS011;5203;48.976;8.306;2022-08-19T04:38:48;27.08;;;24.90;;
10315;SDS011;5203;48.976;8.306;2022-08-19T04:41:15;26.75;;;24.65;;
10315;SDS011;5203;48.976;8.306;2022-08-19T04:44:00;24.42;;;22.52;;
10315;SDS011;5203;48.976;8.306;2022-08-19T04:46:27;24.60;;;22.42;;
10315;SDS011;5203;48.976;8.306;2022-08-19T04:48:55;24.58;;;22.67;;
10315;SDS011;5203;48.976;8.306;2022-08-19T04:51:22;27.75;;;25.55;;
10315;SDS011;5203;48.976;8.306;2022-08-19T04:53:48;24.63;;;22.70;;
10315;SDS011;5203;48.976;8.306;2022-08-19T04:56:14;23.50;;;21.60;;
10315;SDS011;5203;48.976;8.306;2022-08-19T04:58:42;27.27;;;25.10;;
10315;SDS011;5203;48.976;8.306;2022-08-19T05:01:14;27.25;;;24.85;;
10315;SDS011;5203;48.976;8.306;2022-08-19T05:03:43;25.60;;;23.48;;
10315;SDS011;5203;48.976;8.306;2022-08-19T05:06:10;27.23;;;25.05;;
10315;SDS011;5203;48.976;8.306;2022-08-19T05:08:38;25.05;;;23.02;;
10315;SDS011;5203;48.976;8.306;2022-08-19T05:11:12;24.25;;;22.08;;
10315;SDS011;5203;48.976;8.306;2022-08-19T05:13:40;24.75;;;22.70;;
10315;SDS011;5203;48.976;8.306;2022-08-19T05:16:07;27.92;;;25.65;;
10315;SDS011;5203;48.976;8.306;2022-08-19T05:18:34;25.23;;;23.10;;
10315;SDS011;5203;48.976;8.306;2022-08-19T05:21:18;25.38;;;23.15;;
10315;SDS011;5203;48.976;8.306;2022-08-19T05:24:05;26.02;;;23.92;;
10315;SDS011;5203;48.976;8.306;2022-08-19T05:26:37;26.38;;;24.13;;
10315;SDS011;5203;48.976;8.306;2022-08-19T05:29:04;25.23;;;23.20;;
10315;SDS011;5203;48.976;8.306;2022-08-19T05:31:32;27.52;;;25.23;;
10315;SDS011;5203;48.976;8.306;2022-08-19T05:33:58;26.92;;;24.30;;
10315;SDS011;5203;48.976;8.306;2022-08-19T05:36:24;27.77;;;25.52;;
10315;SDS011;5203;48.976;8.306;2022-08-19T05:38:51;25.55;;;23.45;;
10315;SDS011;5203;48.976;8.306;2022-08-19T05:41:18;26.30;;;23.83;;
10315;SDS011;5203;48.976;8.306;2022-08-19T05:43:44;27.50;;;25.10;;
10315;SDS011;5203;48.976;8.306;2022-08-19T05:46:15;26.88;;;24.58;;
10315;SDS011;5203;48.976;8.306;2022-08-19T05:48:44;27.13;;;24.75;;
10315;SDS011;5203;48.976;8.306;2022-08-19T05:51:11;26.77;;;24.48;;
10315;SDS011;5203;48.976;8.306;2022-08-19T05:53:37;25.30;;;23.20;;
10315;SDS011;5203;48.976;8.306;2022-08-19T05:56:04;24.58;;;22.67;;
10315;SDS011;5203;48.976;8.306;2022-08-19T05:58:35;26.20;;;23.88;;
10315;SDS011;5203;48.976;8.306;2022-08-19T06:01:01;25.38;;;23.10;;
10315;SDS011;5203;48.976;8.306;2022-08-19T06:03:30;24.73;;;22.73;;
10315;SDS011;5203;48.976;8.306;2022-08-19T06:06:00;26.85;;;24.65;;
10315;SDS011;5203;48.976;8.306;2022-08-19T06:08:27;24.98;;;22.98;;
10315;SDS011;5203;48.976;8.306;2022-08-19T06:10:53;24.27;;;22.35;;
10315;SDS011;5203;48.976;8.306;2022-08-19T06:13:19;23.90;;;22.00;;
10315;SDS011;5203;48.976;8.306;2022-08-19T06:15:45;22.08;;;20.30;;
10315;SDS011;5203;48.976;8.306;2022-08-19T06:18:12;26.15;;;23.95;;
10315;SDS011;5203;48.976;8.306;2022-08-19T06:20:38;25.50;;;23.38;;
10315;SDS011;5203;48.976;8.306;2022-08-19T06:23:04;24.92;;;22.92;;
10315;SDS011;5203;48.976;8.306;2022-08-19T06:25:30;25.27;;;22.98;;
10315;SDS011;5203;48.976;8.306;2022-08-19T06:27:55;25.50;;;23.38;;
10315;SDS011;5203;48.976;8.306;2022-08-19T06:30:21;24.85;;;22.67;;
10315;SDS011;5203;48.976;8.306;2022-08-19T06:32:47;25.92;;;23.98;;
10315;SDS011;5203;48.976;8.306;2022-08-19T06:35:13;24.40;;;22.40;;
10315;SDS011;5203;48.976;8.306;2022-08-19T06:37:39;26.67;;;24.50;;
10315;SDS011;5203;48.976;8.306;2022-08-19T06:40:05;25.70;;;23.38;;
10315;SDS011;5203;48.976;8.306;2022-08-19T06:42:33;24.98;;;22.88;;
10315;SDS011;5203;48.976;8.306;2022-08-19T06:44:59;22.67;;;20.88;;
10315;SDS011;5203;48.976;8.306;2022-08-19T06:47:29;25.95;;;23.63;;
10315;SDS011;5203;48.976;8.306;2022-08-19T06:49:56;25.17;;;23.08;;
10315;SDS011;5203;48.976;8.306;2022-08-19T06:52:26;24.83;;;22.77;;
10315;SDS011;5203;48.976;8.306;2022-08-19T06:54:52;23.52;;;21.73;;
10315;SDS011;5203;48.976;8.306;2022-08-19T06:57:21;24.42;;;22.45;;
10315;SDS011;5203;48.976;8.306;2022-08-19T06:59:47;24.73;;;22.73;;
10315;SDS011;5203;48.976;8.306;2022-08-19T07:02:12;24.70;;;22.63;;
10315;SDS011;5203;48.976;8.306;2022-08-19T07:04:38;25.05;;;22.67;;
10315;SDS011;5203;48.976;8.306;2022-08-19T07:07:06;25.30;;;23.20;;
10315;SDS011;5203;48.976;8.306;2022-08-19T07:09:35;24.67;;;22.67;;
10315;SDS011;5203;48.976;8.306;2022-08-19T07:12:03;24.20;;;22.05;;
10315;SDS011;5203;48.976;8.306;2022-08-19T07:14:31;25.10;;;22.70;;
10315;SDS011;5203;48.976;8.306;2022-08-19T07:17:02;23.70;;;21.70;;
10315;SDS011;5203;48.976;8.306;2022-08-19T07:19:29;23.50;;;21.40;;
10315;SDS011;5203;48.976;8.306;2022-08-19T07:21:56;23.77;;;21.85;;
10315;SDS011;5203;48.976;8.306;2022-08-19T07:24:25;23.08;;;21.17;;
10315;SDS011;5203;48.976;8.306;2022-08-19T07:26:52;21.23;;;19.42;;
10315;SDS011;5203;48.976;8.306;2022-08-19T07:29:22;21.48;;;19.67;;
10315;SDS011;5203;48.976;8.306;2022-08-19T07:31:48;21.02;;;19.40;;
10315;SDS011;5203;48.976;8.306;2022-08-19T07:34:15;20.40;;;18.80;;
10315;SDS011;5203;48.976;8.306;2022-08-19T07:36:41;19.92;;;18.30;;
10315;SDS011;5203;48.976;8.306;2022-08-19T07:39:14;19.27;;;17.75;;
10315;SDS011;5203;48.976;8.306;2022-08-19T07:41:43;19.77;;;18.25;;
10315;SDS011;5203;48.976;8.306;2022-08-19T07:44:10;20.38;;;18.75;;
10315;SDS011;5203;48.976;8.306;2022-08-19T07:46:38;19.35;;;17.95;;
10315;SDS011;5203;48.976;8.306;2022-08-19T07:49:09;19.13;;;17.58;;
10315;SDS011;5203;48.976;8.306;2022-08-19T07:51:48;19.25;;;17.75;;
10315;SDS011;5203;48.976;8.306;2022-08-19T07:54:18;19.80;;;18.30;;
10315;SDS011;5203;48.976;8.306;2022-08-19T07:56:44;18.27;;;16.95;;
10315;SDS011;5203;48.976;8.306;2022-08-19T07:59:10;19.38;;;17.90;;
10315;SDS011;5203;48.976;8.306;2022-08-19T08:01:37;19.02;;;17.52;;
10315;SDS011;5203;48.976;8.306;2022-08-19T08:04:05;17.50;;;15.98;;
10315;SDS011;5203;48.976;8.306;2022-08-19T08:06:49;18.38;;;16.98;;
10315;SDS011;5203;48.976;8.306;2022-08-19T08:09:35;18.42;;;17.00;;
10315;SDS011;5203;48.976;8.306;2022-08-19T08:12:04;15.93;;;14.70;;
10315;SDS011;5203;48.976;8.306;2022-08-19T08:14:40;16.70;;;15.50;;
10315;SDS011;5203;48.976;8.306;2022-08-19T08:17:09;16.73;;;15.35;;
10315;SDS011;5203;48.976;8.306;2022-08-19T08:19:35;16.85;;;15.63;;
10315;SDS011;5203;48.976;8.306;2022-08-19T08:22:01;17.42;;;15.98;;
10315;SDS011;5203;48.976;8.306;2022-08-19T08:24:28;15.45;;;14.35;;
10315;SDS011;5203;48.976;8.306;2022-08-19T08:26:56;17.13;;;15.82;;
10315;SDS011;5203;48.976;8.306;2022-08-19T08:29:24;15.85;;;14.55;;
10315;SDS011;5203;48.976;8.306;2022-08-19T08:31:54;14.80;;;13.77;;
10315;SDS011;5203;48.976;8.306;2022-08-19T08:34:20;15.90;;;14.70;;
10315;SDS011;5203;48.976;8.306;2022-08-19T08:36:46;15.02;;;13.82;;
10315;SDS011;5203;48.976;8.306;2022-08-19T08:39:13;15.10;;;13.75;;
10315;SDS011;5203;48.976;8.306;2022-08-19T08:45:02;14.30;;;13.20;;
10315;SDS011;5203;48.976;8.306;2022-08-19T08:47:02;14.75;;;13.45;;
10315;SDS011;5203;48.976;8.306;2022-08-19T08:50:33;14.32;;;13.32;;
10315;SDS011;5203;48.976;8.306;2022-08-19T08:52:36;13.85;;;12.68;;
10315;SDS011;5203;48.976;8.306;2022-08-19T08:55:11;13.13;;;12.13;;
10315;SDS011;5203;48.976;8.306;2022-08-19T09:00:12;11.70;;;10.98;;
10315;SDS011;5203;48.976;8.306;2022-08-19T09:02:42;12.77;;;11.75;;
10315;SDS011;5203;48.976;8.306;2022-08-19T09:05:09;13.00;;;11.93;;
10315;SDS011;5203;48.976;8.306;2022-08-19T09:08:13;12.13;;;11.07;;
10315;SDS011;5203;48.976;8.306;2022-08-19T09:10:34;13.00;;;12.00;;
10315;SDS011;5203;48.976;8.306;2022-08-19T09:16:16;12.32;;;10.88;;
10315;SDS011;5203;48.976;8.306;2022-08-19T09:18:53;12.30;;;11.40;;
10315;SDS011;5203;48.976;8.306;2022-08-19T09:21:22;12.63;;;11.55;;
10315;SDS011;5203;48.976;8.306;2022-08-19T09:23:51;11.77;;;10.77;;
10315;SDS011;5203;48.976;8.306;2022-08-19T09:26:18;11.32;;;10.43;;
10315;SDS011;5203;48.976;8.306;2022-08-19T09:28:47;12.38;;;11.38;;
10315;SDS011;5203;48.976;8.306;2022-08-19T09:31:15;12.07;;;11.18;;
10315;SDS011;5203;48.976;8.306;2022-08-19T09:33:42;11.25;;;10.10;;
10315;SDS011;5203;48.976;8.306;2022-08-19T09:36:09;11.55;;;10.68;;
10315;SDS011;5203;48.976;8.306;2022-08-19T09:38:37;13.10;;;12.10;;
10315;SDS011;5203;48.976;8.306;2022-08-19T09:41:08;11.68;;;10.68;;
10315;SDS011;5203;48.976;8.306;2022-08-19T09:43:39;11.43;;;10.63;;
10315;SDS011;5203;48.976;8.306;2022-08-19T09:46:06;10.80;;;10.00;;
10315;SDS011;5203;48.976;8.306;2022-08-19T09:48:34;10.68;;;9.77;;
10315;SDS011;5203;48.976;8.306;2022-08-19T09:51:06;12.10;;;11.07;;
10315;SDS011;5203;48.976;8.306;2022-08-19T09:53:34;11.15;;;10.23;;
10315;SDS011;5203;48.976;8.306;2022-08-19T09:56:02;10.77;;;9.90;;
10315;SDS011;5203;48.976;8.306;2022-08-19T09:58:28;10.27;;;9.48;;
10315;SDS011;5203;48.976;8.306;2022-08-19T10:00:55;10.82;;;9.95;;
10315;SDS011;5203;48.976;8.306;2022-08-19T10:03:25;10.38;;;9.50;;
10315;SDS011;5203;48.976;8.306;2022-08-19T10:05:52;10.45;;;9.57;;
10315;SDS011;5203;48.976;8.306;2022-08-19T10:08:22;10.05;;;9.25;;
10315;SDS011;5203;48.976;8.306;2022-08-19T10:10:56;10.00;;;9.30;;
10315;SDS011;5203;48.976;8.306;2022-08-19T10:13:23;10.68;;;9.98;;
10315;SDS011;5203;48.976;8.306;2022-08-19T10:15:54;10.32;;;9.43;;
10315;SDS011;5203;48.976;8.306;2022-08-19T10:18:21;15.20;;;10.82;;
10315;SDS011;5203;48.976;8.306;2022-08-19T10:20:49;10.40;;;9.70;;
10315;SDS011;5203;48.976;8.306;2022-08-19T10:23:16;11.23;;;10.23;;
10315;SDS011;5203;48.976;8.306;2022-08-19T10:25:42;10.68;;;9.90;;
10315;SDS011;5203;48.976;8.306;2022-08-19T10:28:08;10.13;;;9.32;;
10315;SDS011;5203;48.976;8.306;2022-08-19T10:30:37;11.07;;;10.18;;
10315;SDS011;5203;48.976;8.306;2022-08-19T10:33:04;10.90;;;9.93;;
10315;SDS011;5203;48.976;8.306;2022-08-19T10:35:29;11.38;;;10.43;;
10315;SDS011;5203;48.976;8.306;2022-08-19T10:37:55;10.80;;;9.90;;
10315;SDS011;5203;48.976;8.306;2022-08-19T10:40:24;11.35;;;10.38;;
10315;SDS011;5203;48.976;8.306;2022-08-19T10:42:50;10.68;;;9.93;;
10315;SDS011;5203;48.976;8.306;2022-08-19T10:45:16;11.18;;;10.38;;
10315;SDS011;5203;48.976;8.306;2022-08-19T10:47:42;11.52;;;10.65;;
10315;SDS011;5203;48.976;8.306;2022-08-19T10:50:08;11.52;;;10.63;;
10315;SDS011;5203;48.976;8.306;2022-08-19T10:52:52;11.70;;;10.88;;
10315;SDS011;5203;48.976;8.306;2022-08-19T10:55:19;11.50;;;10.50;;
10315;SDS011;5203;48.976;8.306;2022-08-19T10:58:12;11.85;;;11.05;;
10315;SDS011;5203;48.976;8.306;2022-08-19T11:00:55;11.25;;;10.43;;
10315;SDS011;5203;48.976;8.306;2022-08-19T11:03:22;10.77;;;9.73;;
10315;SDS011;5203;48.976;8.306;2022-08-19T11:05:56;11.13;;;10.25;;
10315;SDS011;5203;48.976;8.306;2022-08-19T11:08:23;10.32;;;9.63;;
10315;SDS011;5203;48.976;8.306;2022-08-19T11:10:52;11.32;;;10.63;;
10315;SDS011;5203;48.976;8.306;2022-08-19T11:13:22;10.93;;;10.23;;
10315;SDS011;5203;48.976;8.306;2022-08-19T11:15:55;10.43;;;9.73;;
10315;SDS011;5203;48.976;8.306;2022-08-19T11:18:48;10.18;;;9.50;;
10315;SDS011;5203;48.976;8.306;2022-08-19T11:21:18;10.95;;;10.25;;
10315;SDS011;5203;48.976;8.306;2022-08-19T11:23:45;10.05;;;9.35;;
10315;SDS011;5203;48.976;8.306;2022-08-19T11:26:13;10.15;;;9.45;;
10315;SDS011;5203;48.976;8.306;2022-08-19T11:28:39;10.57;;;9.77;;
10315;SDS011;5203;48.976;8.306;2022-08-19T11:31:09;11.10;;;10.40;;
10315;SDS011;5203;48.976;8.306;2022-08-19T11:33:40;10.65;;;9.85;;
10315;SDS011;5203;48.976;8.306;2022-08-19T11:36:06;10.57;;;9.88;;
10315;SDS011;5203;48.976;8.306;2022-08-19T11:38:32;11.10;;;10.15;;
10315;SDS011;5203;48.976;8.306;2022-08-19T11:41:00;10.57;;;9.80;;
10315;SDS011;5203;48.976;8.306;2022-08-19T11:43:28;10.82;;;9.73;;
10315;SDS011;5203;48.976;8.306;2022-08-19T11:45:55;11.23;;;10.43;;
10315;SDS011;5203;48.976;8.306;2022-08-19T11:48:22;10.82;;;10.13;;
10315;SDS011;5203;48.976;8.306;2022-08-19T11:50:51;11.07;;;10.38;;
10315;SDS011;5203;48.976;8.306;2022-08-19T11:53:20;10.77;;;9.73;;
10315;SDS011;5203;48.976;8.306;2022-08-19T11:55:46;11.00;;;10.30;;
10315;SDS011;5203;48.976;8.306;2022-08-19T11:58:13;11.48;;;10.63;;
10315;SDS011;5203;48.976;8.306;2022-08-19T12:00:41;12.00;;;11.20;;
10315;SDS011;5203;48.976;8.306;2022-08-19T12:03:07;12.13;;;11.30;;
10315;SDS011;5203;48.976;8.306;2022-08-19T12:05:33;12.18;;;11.18;;
10315;SDS011;5203;48.976;8.306;2022-08-19T12:08:01;11.20;;;10.40;;
10315;SDS011;5203;48.976;8.306;2022-08-19T12:10:27;11.57;;;10.77;;
10315;SDS011;5203;48.976;8.306;2022-08-19T12:12:53;11.35;;;10.55;;
10315;SDS011;5203;48.976;8.306;2022-08-19T12:15:19;12.27;;;11.05;;
10315;SDS011;5203;48.976;8.306;2022-08-19T12:17:44;12.00;;;11.13;;
10315;SDS011;5203;48.976;8.306;2022-08-19T12:20:10;11.55;;;10.75;;
10315;SDS011;5203;48.976;8.306;2022-08-19T12:22:38;11.57;;;10.88;;
10315;SDS011;5203;48.976;8.306;2022-08-19T12:25:06;11.93;;;11.23;;
10315;SDS011;5203;48.976;8.306;2022-08-19T12:27:33;11.35;;;10.60;;
10315;SDS011;5203;48.976;8.306;2022-08-19T12:30:00;10.90;;;10.18;;
10315;SDS011;5203;48.976;8.306;2022-08-19T12:32:27;10.93;;;10.05;;
10315;SDS011;5203;48.976;8.306;2022-08-19T12:34:52;11.57;;;10.77;;
10315;SDS011;5203;48.976;8.306;2022-08-19T12:37:19;11.02;;;10.32;;
10315;SDS011;5203;48.976;8.306;2022-08-19T12:39:45;10.23;;;9.63;;
10315;SDS011;5203;48.976;8.306;2022-08-19T12:42:12;10.30;;;9.70;;
10315;SDS011;5203;48.976;8.306;2022-08-19T12:44:40;10.45;;;9.85;;
10315;SDS011;5203;48.976;8.306;2022-08-19T12:47:07;10.52;;;9.82;;
10315;SDS011;5203;48.976;8.306;2022-08-19T12:49:35;10.25;;;9.55;;
10315;SDS011;5203;48.976;8.306;2022-08-19T12:52:02;10.65;;;10.00;;
10315;SDS011;5203;48.976;8.306;2022-08-19T12:54:29;10.57;;;9.85;;
10315;SDS011;5203;48.976;8.306;2022-08-19T12:56:56;9.63;;;9.02;;
10315;SDS011;5203;48.976;8.306;2022-08-19T12:59:22;9.60;;;9.02;;
10315;SDS011;5203;48.976;8.306;2022-08-19T13:01:48;8.20;;;7.70;;
10315;SDS011;5203;48.976;8.306;2022-08-19T13:04:13;8.60;;;8.10;;
10315;SDS011;5203;48.976;8.306;2022-08-19T13:06:40;9.10;;;8.50;;
10315;SDS011;5203;48.976;8.306;2022-08-19T13:09:07;9.85;;;9.23;;
10315;SDS011;5203;48.976;8.306;2022-08-19T13:11:33;8.30;;;7.80;;
10315;SDS011;5203;48.976;8.306;2022-08-19T13:13:59;9.85;;;9.25;;
10315;SDS011;5203;48.976;8.306;2022-08-19T13:16:27;9.18;;;8.48;;
10315;SDS011;5203;48.976;8.306;2022-08-19T13:18:53;7.90;;;7.28;;
10315;SDS011;5203;48.976;8.306;2022-08-19T13:21:21;7.05;;;6.65;;
10315;SDS011;5203;48.976;8.306;2022-08-19T13:23:49;7.30;;;6.80;;
10315;SDS011;5203;48.976;8.306;2022-08-19T13:26:14;9.13;;;6.75;;
10315;SDS011;5203;48.976;8.306;2022-08-19T13:28:41;6.38;;;5.97;;
10315;SDS011;5203;48.976;8.306;2022-08-19T13:31:26;6.47;;;5.93;;
10315;SDS011;5203;48.976;8.306;2022-08-19T13:34:12;6.78;;;6.25;;
10315;SDS011;5203;48.976;8.306;2022-08-19T13:36:39;6.68;;;6.28;;
10315;SDS011;5203;48.976;8.306;2022-08-19T13:39:06;6.43;;;6.03;;
10315;SDS011;5203;48.976;8.306;2022-08-19T13:41:33;6.60;;;6.20;;
10315;SDS011;5203;48.976;8.306;2022-08-19T13:43:59;7.30;;;6.80;;
10315;SDS011;5203;48.976;8.306;2022-08-19T13:46:26;7.35;;;6.95;;
10315;SDS011;5203;48.976;8.306;2022-08-19T13:48:54;7.47;;;7.07;;
10315;SDS011;5203;48.976;8.306;2022-08-19T13:51:20;7.47;;;6.97;;
10315;SDS011;5203;48.976;8.306;2022-08-19T13:53:45;7.32;;;6.82;;
10315;SDS011;5203;48.976;8.306;2022-08-19T13:56:12;7.50;;;7.10;;
10315;SDS011;5203;48.976;8.306;2022-08-19T13:58:41;7.25;;;6.82;;
10315;SDS011;5203;48.976;8.306;2022-08-19T14:01:06;7.28;;;6.78;;
10315;SDS011;5203;48.976;8.306;2022-08-19T14:03:33;7.10;;;6.63;;
10315;SDS011;5203;48.976;8.306;2022-08-19T14:05:59;7.05;;;6.55;;
10315;SDS011;5203;48.976;8.306;2022-08-19T14:08:26;7.25;;;6.80;;
10315;SDS011;5203;48.976;8.306;2022-08-19T14:10:53;6.88;;;6.47;;
10315;SDS011;5203;48.976;8.306;2022-08-19T14:13:20;7.32;;;6.82;;
10315;SDS011;5203;48.976;8.306;2022-08-19T14:15:48;7.40;;;6.85;;
10315;SDS011;5203;48.976;8.306;2022-08-19T14:18:15;6.82;;;6.35;;
10315;SDS011;5203;48.976;8.306;2022-08-19T14:20:42;7.85;;;7.15;;
10315;SDS011;5203;48.976;8.306;2022-08-19T14:23:08;7.22;;;6.55;;
10315;SDS011;5203;48.976;8.306;2022-08-19T14:25:33;7.47;;;6.97;;
10315;SDS011;5203;48.976;8.306;2022-08-19T14:27:59;6.60;;;6.20;;
10315;SDS011;5203;48.976;8.306;2022-08-19T14:30:29;7.38;;;6.97;;
10315;SDS011;5203;48.976;8.306;2022-08-19T14:32:58;7.20;;;6.80;;
10315;SDS011;5203;48.976;8.306;2022-08-19T14:35:25;7.47;;;6.95;;
10315;SDS011;5203;48.976;8.306;2022-08-19T14:37:53;7.88;;;7.38;;
10315;SDS011;5203;48.976;8.306;2022-08-19T14:40:21;8.00;;;7.32;;
10315;SDS011;5203;48.976;8.306;2022-08-19T14:42:54;8.25;;;7.75;;
10315;SDS011;5203;48.976;8.306;2022-08-19T14:45:27;8.18;;;7.57;;
10315;SDS011;5203;48.976;8.306;2022-08-19T14:47:53;7.97;;;7.47;;
10315;SDS011;5203;48.976;8.306;2022-08-19T14:50:20;7.57;;;6.97;;
10315;SDS011;5203;48.976;8.306;2022-08-19T14:52:46;9.00;;;8.07;;
10315;SDS011;5203;48.976;8.306;2022-08-19T14:55:13;8.25;;;7.63;;
10315;SDS011;5203;48.976;8.306;2022-08-19T14:57:41;8.30;;;7.60;;
10315;SDS011;5203;48.976;8.306;2022-08-19T15:00:08;8.40;;;7.80;;
10315;SDS011;5203;48.976;8.306;2022-08-19T15:02:38;8.68;;;7.90;;